< Typhoon 196704 1967 Season Typhoon 196706 >
Typhoon 196705 (WILDA)
General InformationTrack Information on Google Maps || Disaster Info.ResourceGoogle EarthGE AnimationAtom FeedGeoJSON
Detalied Best Track (Time Zone = UTC)
Year Month Day Hour Lat. Long. Pressure (hPa) Wind (kt) Class Image Chart
1967 5 8 00 6.3 136.9 1006 0 2 -- Chart
1967 5 8 06 6.8 137.1 1006 0 2 -- Chart
1967 5 8 12 7.4 137.4 1006 0 2 -- Chart
1967 5 8 18 8.1 138.0 1006 0 2 -- Chart
1967 5 9 00 8.9 138.0 1006 0 2 -- Chart
1967 5 9 06 9.4 136.3 1004 0 2 -- Chart
1967 5 9 12 10.3 135.3 1004 0 2 -- Chart
1967 5 9 18 10.9 134.7 1004 0 2 -- Chart
1967 5 10 00 11.4 134.2 1004 0 2 -- Chart
1967 5 10 06 12.4 134.6 1004 0 9 -- Chart
1967 5 10 12 13.2 134.5 1004 0 9 -- Chart
1967 5 10 18 13.2 134.1 1004 0 9 -- Chart
1967 5 11 00 13.2 133.7 1004 0 9 -- Chart
1967 5 11 06 13.2 133.4 1004 0 9 -- Chart
1967 5 11 12 13.0 133.0 1004 0 9 -- Chart
1967 5 11 18 12.9 132.8 1004 0 9 -- Chart
1967 5 12 00 12.8 132.2 1004 0 9 -- Chart
1967 5 12 06 12.8 132.1 1004 0 9 -- Chart
1967 5 12 12 12.5 132.0 1004 0 2 -- Chart
1967 5 12 18 12.2 132.0 1005 0 2 -- Chart
1967 5 13 00 11.9 132.0 1006 0 2 -- Chart
1967 5 13 06 11.3 132.0 1006 0 2 -- Chart
Japan Meteorological Agency Best Track Data | Correction Date : 1989-06-01
< Typhoon 196704 1967 Season Typhoon 196706 >

Help